Time;durP1;ratioP1;P1;durP2;ratioP2;P2;SDS_P1;SDS_P2;PMS_P1;PMS_P2;Temp;Humidity;BMP_temperature;BMP_pressure;BME280_temperature;BME280_humidity;BME280_pressure;Samples;Min_cycle;Max_cycle;Signal;HPM_P1;HPM_P2
2022/04/18 00:01:40;;;;;;;1.73;1.25;;;9.00;79.50;;;;;;5072908;28;20230;-60
2022/04/18 00:04:08;;;;;;;2.25;1.63;;;9.00;78.70;;;;;;5057486;28;20203;-60
2022/04/18 00:06:36;;;;;;;2.85;1.50;;;9.00;79.60;;;;;;5072988;28;20227;-60
2022/04/18 00:09:04;;;;;;;2.22;1.60;;;9.10;83.00;;;;;;5076466;28;20854;-61
2022/04/18 00:11:32;;;;;;;1.85;1.60;;;9.10;81.70;;;;;;5073076;28;20262;-60
2022/04/18 00:14:00;;;;;;;2.95;1.58;;;9.30;84.30;;;;;;5054171;28;20298;-61
2022/04/18 00:16:28;;;;;;;2.17;1.60;;;9.40;83.10;;;;;;5057803;28;20262;-60
2022/04/18 00:18:57;;;;;;;2.25;2.05;;;9.40;79.40;;;;;;5054423;28;20638;-60
2022/04/18 00:21:25;;;;;;;1.85;1.67;;;9.30;85.80;;;;;;5053662;28;20685;-60
2022/04/18 00:23:53;;;;;;;1.77;1.65;;;9.40;83.50;;;;;;5052580;28;20228;-60
2022/04/18 00:26:21;;;;;;;2.13;1.92;;;9.20;80.20;;;;;;5052895;28;20315;-60
2022/04/18 00:28:49;;;;;;;2.45;2.25;;;9.20;82.00;;;;;;5052960;28;20733;-61
2022/04/18 00:31:16;;;;;;;3.53;2.70;;;9.20;81.20;;;;;;5050409;28;20247;-60
2022/04/18 00:33:44;;;;;;;3.63;2.80;;;9.10;80.90;;;;;;5044454;28;20232;-61
2022/04/18 00:36:13;;;;;;;3.05;2.75;;;9.00;81.90;;;;;;5051806;28;20258;-61
2022/04/18 00:38:44;;;;;;;3.13;2.83;;;9.00;88.20;;;;;;5053195;28;20302;-60
2022/04/18 00:41:12;;;;;;;3.15;2.85;;;9.20;83.50;;;;;;5045159;28;20206;-60
2022/04/18 00:43:42;;;;;;;3.25;2.95;;;9.10;83.30;;;;;;5051381;28;20269;-60
2022/04/18 00:46:11;;;;;;;3.00;2.80;;;9.10;84.60;;;;;;5048620;28;20654;-60
2022/04/18 00:48:39;;;;;;;4.20;3.00;;;9.00;83.40;;;;;;5049627;28;20298;-61
2022/04/18 00:51:09;;;;;;;4.07;3.60;;;9.00;89.10;;;;;;5052213;28;20291;-60
2022/04/18 00:53:40;;;;;;;4.60;4.20;;;8.90;83.90;;;;;;5051862;28;20323;-60
2022/04/18 00:56:09;;;;;;;4.22;3.83;;;8.90;83.60;;;;;;5052354;28;20748;-60
2022/04/18 00:58:39;;;;;;;4.00;3.70;;;8.80;84.40;;;;;;5052590;28;20283;-60
2022/04/18 01:01:06;;;;;;;3.72;3.42;;;8.80;86.40;;;;;;5048406;28;20232;-60
2022/04/18 01:03:35;;;;;;;3.80;3.47;;;8.70;88.00;;;;;;5044094;28;20212;-60
2022/04/18 01:06:04;;;;;;;2.70;2.47;;;8.80;86.10;;;;;;5052117;28;20279;-62
2022/04/18 01:08:34;;;;;;;3.30;2.75;;;8.70;87.40;;;;;;5054313;28;20243;-60
2022/04/18 01:11:05;;;;;;;3.22;2.45;;;8.80;90.10;;;;;;5052059;28;20670;-60
2022/04/18 01:13:40;;;;;;;2.97;2.40;;;8.70;87.90;;;;;;5066489;28;20271;-60
2022/04/18 01:16:08;;;;;;;6.85;2.95;;;8.60;86.80;;;;;;5072264;28;20621;-60
2022/04/18 01:18:37;;;;;;;3.50;2.00;;;8.40;87.10;;;;;;5072441;28;20210;-60
2022/04/18 01:21:06;;;;;;;1.85;1.65;;;8.30;89.70;;;;;;5071816;28;20282;-60
2022/04/18 01:23:34;;;;;;;2.70;2.00;;;8.30;88.20;;;;;;5070984;28;20239;-60
2022/04/18 01:29:01;;;;;;;2.15;1.80;;;8.50;91.50;;;;;;5067706;28;20305;-60
2022/04/18 01:31:30;;;;;;;2.67;2.40;;;8.60;91.40;;;;;;5067500;28;20225;-60
2022/04/18 01:33:59;;;;;;;3.70;2.40;;;8.60;90.00;;;;;;5070351;28;20223;-60
2022/04/18 01:36:29;;;;;;;1.90;1.60;;;8.50;90.50;;;;;;5071848;28;20231;-61
2022/04/18 01:38:57;;;;;;;1.88;1.77;;;8.50;90.70;;;;;;5071427;28;20207;-61
2022/04/18 01:41:25;;;;;;;2.42;2.15;;;8.60;92.80;;;;;;5071728;28;20244;-60
2022/04/18 01:43:53;;;;;;;2.33;2.13;;;8.60;93.60;;;;;;5070879;28;20309;-60
2022/04/18 01:46:21;;;;;;;3.17;1.75;;;8.70;91.00;;;;;;5071140;28;20290;-60
2022/04/18 01:48:51;;;;;;;1.77;1.67;;;8.80;92.90;;;;;;5071458;28;20231;-60
2022/04/18 01:51:19;;;;;;;4.70;2.20;;;8.70;92.60;;;;;;5071668;28;20253;-61
2022/04/18 01:53:49;;;;;;;1.83;1.73;;;8.60;91.70;;;;;;5070866;28;20297;-60
2022/04/18 01:56:17;;;;;;;2.78;1.58;;;8.40;91.40;;;;;;5070384;28;20215;-62
2022/04/18 01:58:44;;;;;;;4.60;1.75;;;8.50;93.30;;;;;;5071605;28;20722;-61
2022/04/18 02:01:12;;;;;;;3.97;1.80;;;8.40;91.40;;;;;;5070775;28;20624;-61
2022/04/18 02:03:43;;;;;;;2.25;1.77;;;8.20;91.90;;;;;;5060243;28;20255;-60
2022/04/18 02:06:11;;;;;;;2.53;1.85;;;8.20;95.00;;;;;;5069919;28;20211;-61
2022/04/18 02:08:40;;;;;;;2.85;1.73;;;8.20;92.00;;;;;;5071069;28;20211;-60
2022/04/18 02:11:10;;;;;;;2.03;1.85;;;8.20;92.60;;;;;;5070733;28;20203;-61
2022/04/18 02:13:38;;;;;;;2.63;2.00;;;8.20;92.60;;;;;;5070087;28;20238;-61
2022/04/18 02:16:06;;;;;;;3.95;1.70;;;8.20;92.50;;;;;;5070667;28;20614;-60
2022/04/18 02:18:34;;;;;;;2.67;2.35;;;8.10;94.10;;;;;;5070695;28;20200;-60
2022/04/18 02:21:01;;;;;;;2.35;1.95;;;8.10;92.60;;;;;;5071188;28;20600;-60
2022/04/18 02:23:29;;;;;;;1.83;1.73;;;7.90;93.30;;;;;;5070354;28;20249;-60
2022/04/18 02:25:57;;;;;;;1.70;1.60;;;7.80;93.10;;;;;;5071156;28;20230;-60
2022/04/18 02:28:26;;;;;;;4.72;2.03;;;7.70;93.30;;;;;;5070395;28;20769;-60
2022/04/18 02:30:54;;;;;;;3.72;2.28;;;7.70;95.50;;;;;;5069881;28;20238;-61
2022/04/18 02:33:22;;;;;;;1.83;1.73;;;7.80;96.10;;;;;;5064404;28;20223;-62
2022/04/18 02:35:50;;;;;;;3.67;1.40;;;7.70;94.60;;;;;;5070752;28;20259;-61
2022/04/18 02:38:18;;;;;;;2.03;1.83;;;7.70;94.40;;;;;;5070823;28;20199;-62
2022/04/18 02:40:47;;;;;;;1.45;1.35;;;7.80;95.20;;;;;;5065978;28;20226;-61
2022/04/18 02:43:14;;;;;;;2.70;2.20;;;7.80;95.40;;;;;;5068236;28;20227;-61
2022/04/18 02:45:43;;;;;;;1.90;1.63;;;7.70;94.80;;;;;;5070313;28;20282;-61
2022/04/18 02:48:12;;;;;;;2.42;1.90;;;7.70;96.70;;;;;;5062220;28;20294;-60
2022/04/18 02:50:40;;;;;;;2.50;1.80;;;7.70;95.10;;;;;;5070383;28;20345;-60
2022/04/18 02:53:08;;;;;;;2.80;1.90;;;7.80;99.20;;;;;;5069947;28;20314;-60
2022/04/18 02:55:37;;;;;;;2.28;2.08;;;8.10;99.10;;;;;;5070377;28;20638;-61
2022/04/18 02:58:05;;;;;;;1.65;1.50;;;8.20;97.10;;;;;;5068050;28;20200;-60
2022/04/18 03:00:33;;;;;;;2.85;1.92;;;8.30;96.20;;;;;;5070566;28;20290;-61
2022/04/18 03:03:02;;;;;;;2.40;2.10;;;8.50;98.50;;;;;;5065454;28;20219;-60
2022/04/18 03:05:30;;;;;;;2.08;1.75;;;8.60;99.30;;;;;;5068796;28;20302;-60
2022/04/18 03:07:58;;;;;;;2.63;2.17;;;8.70;97.60;;;;;;5070485;28;20298;-60
2022/04/18 03:13:07;;;;;;;2.03;1.73;;;8.90;96.80;;;;;;5050656;28;20330;-60
2022/04/18 03:15:35;;;;;;;4.45;1.48;;;8.80;97.90;;;;;;5049936;28;20291;-60
2022/04/18 03:18:05;;;;;;;2.05;1.77;;;8.80;98.10;;;;;;5055005;28;20273;-60
2022/04/18 03:20:33;;;;;;;2.00;1.50;;;8.60;96.20;;;;;;5045470;28;20204;-60
2022/04/18 03:23:01;;;;;;;1.20;1.10;;;8.60;96.40;;;;;;5043243;28;20254;-60
2022/04/18 03:25:28;;;;;;;2.78;1.60;;;8.70;97.90;;;;;;5043952;28;20661;-61
2022/04/18 03:27:56;;;;;;;2.67;1.80;;;8.70;94.60;;;;;;5043762;28;20294;-60
2022/04/18 03:30:24;;;;;;;3.03;1.85;;;8.70;97.70;;;;;;5056387;28;20319;-60
2022/04/18 03:32:52;;;;;;;2.35;1.73;;;8.50;94.40;;;;;;5038094;28;20344;-60
2022/04/18 03:35:21;;;;;;;2.35;1.83;;;8.30;98.20;;;;;;5049974;28;20299;-60
2022/04/18 03:40:35;;;;;;;2.25;1.70;;;8.20;96.50;;;;;;5050072;28;20654;-60
2022/04/18 03:43:03;;;;;;;1.67;1.58;;;8.30;96.20;;;;;;5049240;28;20232;-60
2022/04/18 03:45:31;;;;;;;1.95;1.73;;;8.30;97.90;;;;;;5050294;28;20246;-60
2022/04/18 03:47:58;;;;;;;1.88;1.77;;;8.30;98.40;;;;;;5049868;28;20215;-60
2022/04/18 03:50:28;;;;;;;1.70;1.60;;;8.30;96.90;;;;;;5049950;28;20224;-60
2022/04/18 03:52:56;;;;;;;1.75;1.40;;;8.30;99.20;;;;;;5048335;28;20224;-60
2022/04/18 03:55:25;;;;;;;1.60;1.50;;;8.50;99.90;;;;;;5047552;28;20283;-60
2022/04/18 03:57:53;;;;;;;2.85;1.90;;;8.60;99.40;;;;;;5048068;28;20681;-60
2022/04/18 04:00:21;;;;;;;2.10;1.75;;;8.30;95.40;;;;;;5039135;28;20291;-60
2022/04/18 04:02:48;;;;;;;2.20;1.63;;;8.20;96.60;;;;;;5046611;28;20258;-60
2022/04/18 04:05:16;;;;;;;2.53;2.00;;;8.00;99.90;;;;;;5051631;28;20205;-61
2022/04/18 04:07:46;;;;;;;2.75;1.70;;;8.20;99.90;;;;;;5051381;28;20196;-61
2022/04/18 04:10:14;;;;;;;1.60;1.50;;;8.10;98.20;;;;;;5037241;28;20279;-62
2022/04/18 04:12:41;;;;;;;2.08;1.90;;;8.10;99.90;;;;;;5044830;28;20274;-61
2022/04/18 04:15:10;;;;;;;4.00;1.70;;;8.30;99.90;;;;;;5049791;28;20234;-62
2022/04/18 04:17:38;;;;;;;1.85;1.75;;;8.50;99.90;;;;;;5049392;28;20759;-62
2022/04/18 04:20:21;;;;;;;2.00;1.80;;;8.60;99.90;;;;;;5051139;28;20192;-62
2022/04/18 04:22:51;;;;;;;1.70;1.60;;;8.70;99.00;;;;;;5049756;28;20705;-62
2022/04/18 04:25:19;;;;;;;1.92;1.75;;;8.80;99.90;;;;;;5053904;28;20291;-62
2022/04/18 04:27:47;;;;;;;2.78;1.88;;;8.90;98.60;;;;;;5052801;28;20200;-61
2022/04/18 04:30:15;;;;;;;1.45;1.35;;;8.80;99.40;;;;;;5052858;28;20299;-62
2022/04/18 04:32:43;;;;;;;1.88;1.77;;;8.80;98.60;;;;;;5041104;28;20748;-61
2022/04/18 04:35:11;;;;;;;1.67;1.58;;;8.90;99.10;;;;;;5051553;28;20224;-62
2022/04/18 04:37:39;;;;;;;1.98;1.77;;;8.90;99.70;;;;;;5053248;28;20200;-62
2022/04/18 04:40:10;;;;;;;2.53;1.92;;;8.90;99.70;;;;;;5053187;28;20578;-61
2022/04/18 04:42:38;;;;;;;1.70;1.60;;;9.00;98.60;;;;;;5052439;28;20246;-61
2022/04/18 04:45:06;;;;;;;2.45;1.92;;;9.10;98.80;;;;;;5053173;28;20199;-62
2022/04/18 04:47:34;;;;;;;2.00;1.58;;;9.10;98.30;;;;;;5052157;28;20199;-61
2022/04/18 04:50:02;;;;;;;3.45;1.65;;;9.00;97.50;;;;;;5052893;28;20266;-62
2022/04/18 04:52:30;;;;;;;1.75;1.65;;;8.90;98.70;;;;;;5052367;28;20290;-63
2022/04/18 04:54:58;;;;;;;1.40;1.30;;;8.90;98.80;;;;;;5052925;28;20528;-60
2022/04/18 04:57:27;;;;;;;2.22;1.67;;;9.00;98.80;;;;;;5052872;28;20283;-60
2022/04/18 04:59:55;;;;;;;4.60;1.55;;;9.00;97.10;;;;;;5052805;28;20196;-60
2022/04/18 05:02:24;;;;;;;2.45;2.20;;;9.00;98.70;;;;;;5049703;28;20216;-60
2022/04/18 05:04:52;;;;;;;1.65;1.55;;;9.00;97.40;;;;;;5052540;28;20299;-61
2022/04/18 05:07:20;;;;;;;1.98;1.77;;;8.80;96.50;;;;;;5052291;28;20283;-61
2022/04/18 05:09:48;;;;;;;3.38;1.50;;;8.80;98.10;;;;;;5052180;28;20212;-61
2022/04/18 05:12:48;;;;;;;1.63;1.50;;;8.90;97.70;;;;;;5056516;28;20277;-60
2022/04/18 05:15:17;;;;;;;1.40;1.30;;;8.80;96.40;;;;;;4952679;29;20227;-69
2022/04/18 05:17:45;;;;;;;1.88;1.73;;;8.70;99.90;;;;;;4953845;29;20207;-68
2022/04/18 05:20:13;;;;;;;1.63;1.33;;;8.80;98.00;;;;;;4950534;29;20207;-69
2022/04/18 05:22:42;;;;;;;1.88;1.40;;;8.90;99.90;;;;;;4953479;29;20258;-68
2022/04/18 05:25:10;;;;;;;2.22;1.95;;;9.00;99.90;;;;;;4953960;29;20669;-69
2022/04/18 05:27:38;;;;;;;2.00;1.60;;;9.20;99.80;;;;;;4953722;29;20572;-67
2022/04/18 05:30:08;;;;;;;2.00;1.73;;;9.30;99.10;;;;;;4948997;28;20735;-69
2022/04/18 05:32:37;;;;;;;3.25;1.70;;;9.50;98.50;;;;;;4936625;29;20224;-70
2022/04/18 05:35:06;;;;;;;1.90;1.45;;;9.50;98.30;;;;;;4931868;29;20243;-69
2022/04/18 05:37:34;;;;;;;2.58;1.50;;;9.50;96.60;;;;;;4934844;29;20243;-69
2022/04/18 05:40:02;;;;;;;2.45;1.50;;;9.50;96.80;;;;;;4935123;29;20200;-68
2022/04/18 05:42:29;;;;;;;1.92;1.83;;;9.30;96.00;;;;;;4934627;29;20204;-69
2022/04/18 05:44:57;;;;;;;1.70;1.60;;;9.20;96.00;;;;;;4934744;29;20299;-68
2022/04/18 05:47:25;;;;;;;1.40;1.30;;;9.20;97.60;;;;;;4934872;29;20259;-68
2022/04/18 05:49:54;;;;;;;2.05;1.90;;;9.10;96.60;;;;;;4934856;29;20582;-68
2022/04/18 05:52:22;;;;;;;1.73;1.63;;;9.00;96.60;;;;;;4933123;29;20246;-68
2022/04/18 05:54:50;;;;;;;2.90;2.20;;;9.00;96.60;;;;;;4934989;29;20209;-68
2022/04/18 05:57:18;;;;;;;2.30;1.80;;;9.10;96.70;;;;;;4935082;29;20204;-68
2022/04/18 05:59:46;;;;;;;3.13;1.92;;;9.20;96.60;;;;;;4934955;29;20235;-68
2022/04/18 06:02:15;;;;;;;1.95;1.70;;;9.30;96.80;;;;;;4933930;29;20616;-68
2022/04/18 06:04:43;;;;;;;1.70;1.60;;;9.30;97.10;;;;;;4936516;29;20649;-69
2022/04/18 06:07:12;;;;;;;4.50;2.10;;;9.40;96.60;;;;;;4952914;29;20595;-68
2022/04/18 06:09:40;;;;;;;3.65;1.70;;;9.40;96.00;;;;;;4947379;29;20255;-69
2022/04/18 06:12:14;;;;;;;1.95;1.40;;;9.60;96.90;;;;;;4952379;29;20442;-69
2022/04/18 06:14:42;;;;;;;2.42;1.90;;;9.70;96.40;;;;;;4948757;28;20231;-69
2022/04/18 06:17:09;;;;;;;3.15;1.85;;;9.70;95.80;;;;;;4934791;29;20693;-68
2022/04/18 06:19:37;;;;;;;1.75;1.65;;;9.80;96.60;;;;;;4934653;29;20203;-67
2022/04/18 06:22:06;;;;;;;2.00;1.67;;;9.90;95.80;;;;;;4932173;29;20199;-69
2022/04/18 06:24:35;;;;;;;2.60;1.88;;;10.00;95.40;;;;;;4935772;29;20636;-69
2022/04/18 06:27:03;;;;;;;2.25;1.55;;;10.00;95.40;;;;;;4935704;29;20200;-69
2022/04/18 06:29:31;;;;;;;2.10;1.50;;;10.20;95.30;;;;;;4934874;29;20721;-70
2022/04/18 06:31:58;;;;;;;2.10;1.90;;;10.30;94.90;;;;;;4933495;29;20304;-67
2022/04/18 06:34:28;;;;;;;3.15;1.90;;;10.40;94.90;;;;;;4933794;29;20624;-68
2022/04/18 06:36:56;;;;;;;1.92;1.73;;;10.50;94.80;;;;;;4935822;29;20202;-69
2022/04/18 06:39:23;;;;;;;2.20;1.95;;;10.50;94.80;;;;;;4933140;29;20656;-70
2022/04/18 06:41:55;;;;;;;3.35;1.98;;;10.60;94.00;;;;;;4933746;29;20237;-67
2022/04/18 06:44:23;;;;;;;2.80;2.05;;;10.70;94.00;;;;;;4932661;29;20594;-67
2022/04/18 06:46:56;;;;;;;2.55;2.25;;;10.70;94.20;;;;;;4935465;29;20203;-69
2022/04/18 06:49:24;;;;;;;2.10;1.90;;;10.80;94.10;;;;;;4933421;29;20256;-69
2022/04/18 06:51:52;;;;;;;3.67;2.05;;;10.90;94.20;;;;;;4933694;29;20266;-67
2022/04/18 06:54:20;;;;;;;2.40;1.77;;;10.90;93.70;;;;;;4933479;29;20220;-67
2022/04/18 06:56:59;;;;;;;2.20;1.67;;;10.90;93.40;;;;;;4933977;29;20287;-68
2022/04/18 06:59:29;;;;;;;2.65;2.10;;;11.00;92.90;;;;;;4934004;29;20286;-67
2022/04/18 07:01:58;;;;;;;1.90;1.70;;;11.20;93.50;;;;;;4938105;29;20686;-66
2022/04/18 07:04:26;;;;;;;4.00;1.90;;;11.30;92.40;;;;;;4935916;29;20228;-67
2022/04/18 07:06:54;;;;;;;2.30;1.95;;;11.30;92.60;;;;;;4938874;29;20222;-66
2022/04/18 07:09:23;;;;;;;2.50;2.10;;;11.20;93.00;;;;;;4937503;29;20234;-67
2022/04/18 07:11:51;;;;;;;1.85;1.75;;;11.30;92.60;;;;;;4932995;29;20254;-66
2022/04/18 07:14:19;;;;;;;2.15;1.85;;;11.30;92.10;;;;;;4947673;28;20247;-67
2022/04/18 07:16:49;;;;;;;2.60;1.90;;;11.30;92.30;;;;;;4959355;28;20238;-68
2022/04/18 07:19:17;;;;;;;2.63;1.90;;;11.40;92.70;;;;;;4951149;28;20200;-68
2022/04/18 07:21:45;;;;;;;2.22;1.70;;;11.50;92.60;;;;;;4949601;28;20708;-69
2022/04/18 07:24:13;;;;;;;3.92;2.30;;;11.70;92.40;;;;;;4945341;28;20700;-67
2022/04/18 07:26:41;;;;;;;3.25;2.63;;;11.80;91.40;;;;;;4948229;28;20211;-69
2022/04/18 07:29:09;;;;;;;2.08;1.88;;;11.80;91.30;;;;;;4944425;28;20636;-67
2022/04/18 07:31:37;;;;;;;3.25;2.13;;;11.90;91.70;;;;;;4952776;28;20254;-68
2022/04/18 07:34:06;;;;;;;2.05;1.85;;;12.10;91.10;;;;;;4945811;28;20219;-68
2022/04/18 07:36:34;;;;;;;2.05;1.90;;;12.10;91.60;;;;;;4952228;28;20238;-68
2022/04/18 07:39:02;;;;;;;2.85;1.80;;;12.30;90.60;;;;;;4945273;28;20290;-68
2022/04/18 07:41:30;;;;;;;1.83;1.73;;;12.50;91.50;;;;;;4948959;28;20199;-68
2022/04/18 07:43:59;;;;;;;2.42;1.75;;;12.70;91.50;;;;;;4949604;28;20275;-68
2022/04/18 07:46:26;;;;;;;2.13;1.92;;;12.90;90.60;;;;;;4951349;28;20212;-68
2022/04/18 07:48:55;;;;;;;3.00;2.40;;;13.00;90.40;;;;;;4957083;28;20208;-68
2022/04/18 07:51:35;;;;;;;2.10;1.88;;;13.10;89.80;;;;;;4950353;28;20647;-68
2022/04/18 07:54:05;;;;;;;3.45;2.20;;;13.20;89.00;;;;;;4955986;28;20247;-67
2022/04/18 07:56:33;;;;;;;3.35;2.15;;;13.20;87.40;;;;;;4956767;28;21011;-68
2022/04/18 07:59:01;;;;;;;2.45;2.10;;;13.30;87.20;;;;;;4957158;28;20539;-67
2022/04/18 08:01:30;;;;;;;2.80;1.88;;;13.30;88.40;;;;;;4958048;28;20677;-67
2022/04/18 08:04:01;;;;;;;2.38;1.90;;;13.40;90.00;;;;;;4953366;28;20246;-67
2022/04/18 08:06:31;;;;;;;3.75;2.13;;;13.70;89.10;;;;;;4956358;28;20207;-69
2022/04/18 08:08:59;;;;;;;3.50;2.60;;;13.80;87.30;;;;;;4958730;28;20235;-68
2022/04/18 08:11:27;;;;;;;2.80;2.60;;;14.00;85.70;;;;;;4951097;28;20243;-69
2022/04/18 08:13:55;;;;;;;5.28;2.10;;;14.10;87.20;;;;;;4954445;28;20270;-69
2022/04/18 08:16:24;;;;;;;2.92;2.67;;;14.30;86.30;;;;;;4958569;28;20246;-69
2022/04/18 08:18:52;;;;;;;3.00;2.70;;;14.40;85.00;;;;;;4956777;28;20214;-69
2022/04/18 08:21:20;;;;;;;2.75;2.53;;;14.40;84.30;;;;;;4955906;28;20286;-70
2022/04/18 08:23:51;;;;;;;4.43;2.80;;;14.60;83.90;;;;;;4954113;28;21545;-70
2022/04/18 08:26:21;;;;;;;2.50;2.30;;;14.80;84.10;;;;;;4957425;28;20222;-69
2022/04/18 08:28:49;;;;;;;2.58;2.38;;;14.90;84.90;;;;;;4950818;28;20206;-69
2022/04/18 08:31:17;;;;;;;4.10;2.45;;;15.20;84.00;;;;;;4958138;28;20285;-69
2022/04/18 08:33:45;;;;;;;5.50;2.70;;;15.30;83.70;;;;;;4955088;28;20218;-69
2022/04/18 08:36:13;;;;;;;3.33;2.63;;;15.60;81.50;;;;;;4954567;28;20243;-67
2022/04/18 08:38:40;;;;;;;3.38;2.88;;;15.70;80.30;;;;;;4951396;28;20261;-66
2022/04/18 08:41:14;;;;;;;3.50;2.75;;;15.90;80.00;;;;;;4954031;28;20233;-67
2022/04/18 08:43:42;;;;;;;4.40;3.17;;;15.90;78.90;;;;;;4954528;28;20266;-67
2022/04/18 08:46:11;;;;;;;2.88;2.60;;;16.00;78.80;;;;;;4954493;28;20235;-67
2022/04/18 08:54:13;;;;;;;3.75;2.65;;;16.30;75.90;;;;;;4956696;28;20218;-67
2022/04/18 08:56:42;;;;;;;3.55;2.50;;;16.50;77.50;;;;;;4955324;28;21244;-67
2022/04/18 08:59:10;;;;;;;3.58;3.20;;;16.80;77.60;;;;;;4955171;28;20294;-67
2022/04/18 09:01:47;;;;;;;3.45;2.80;;;17.10;77.30;;;;;;4958724;28;20191;-67
2022/04/18 09:04:15;;;;;;;3.17;2.88;;;17.30;76.40;;;;;;4954941;28;20218;-65
2022/04/18 09:06:43;;;;;;;5.18;2.60;;;17.40;76.10;;;;;;4955359;28;20242;-67
2022/04/18 09:09:11;;;;;;;3.47;3.13;;;17.60;74.60;;;;;;4956118;28;20237;-68
2022/04/18 09:11:40;;;;;;;3.70;3.33;;;17.70;75.50;;;;;;4958416;28;20714;-68
2022/04/18 09:14:11;;;;;;;3.85;3.15;;;17.70;74.60;;;;;;4959131;28;20235;-68
2022/04/18 09:16:40;;;;;;;3.60;3.10;;;17.70;73.70;;;;;;4949925;29;20199;-68
2022/04/18 09:19:10;;;;;;;3.67;3.08;;;18.00;73.30;;;;;;4953871;29;20210;-67
2022/04/18 09:21:43;;;;;;;4.22;2.90;;;18.10;73.80;;;;;;4950701;29;20673;-68
2022/04/18 09:24:31;;;;;;;2.90;2.67;;;18.20;71.70;;;;;;4952400;29;20258;-68
2022/04/18 09:27:05;;;;;;;3.95;3.05;;;18.40;72.30;;;;;;4948731;29;20196;-69
2022/04/18 09:29:38;;;;;;;2.92;2.58;;;18.60;71.60;;;;;;4940834;29;20605;-69
2022/04/18 09:32:08;;;;;;;3.72;3.00;;;18.40;71.80;;;;;;4934034;29;20258;-69
2022/04/18 09:34:36;;;;;;;4.13;3.17;;;18.60;72.20;;;;;;4930399;29;20223;-69
2022/04/18 09:37:12;;;;;;;2.80;2.60;;;18.80;70.10;;;;;;4930966;29;20207;-69
2022/04/18 09:39:43;;;;;;;3.55;2.83;;;19.20;68.50;;;;;;4932352;28;20282;-69
2022/04/18 09:42:12;;;;;;;7.82;3.35;;;19.20;68.50;;;;;;4930214;29;20219;-70
2022/04/18 09:44:41;;;;;;;2.80;2.63;;;19.50;68.70;;;;;;4931244;29;20310;-70
2022/04/18 09:47:15;;;;;;;3.22;2.92;;;19.60;68.30;;;;;;4931545;29;20294;-68
2022/04/18 09:49:43;;;;;;;3.45;2.90;;;19.60;66.80;;;;;;4933421;29;21454;-69
2022/04/18 09:52:14;;;;;;;3.00;2.70;;;19.80;65.40;;;;;;4930634;29;20238;-69
2022/04/18 09:54:44;;;;;;;2.50;2.30;;;20.10;65.70;;;;;;4930805;29;20231;-68
2022/04/18 09:57:22;;;;;;;3.35;2.60;;;19.80;66.50;;;;;;4930382;29;20217;-70
2022/04/18 09:59:52;;;;;;;2.65;2.45;;;19.90;67.50;;;;;;4928224;29;20235;-67
2022/04/18 10:02:21;;;;;;;3.08;2.75;;;19.90;65.70;;;;;;4932199;29;20223;-68
2022/04/18 10:04:50;;;;;;;3.15;2.95;;;19.60;65.60;;;;;;4928189;29;20783;-70
2022/04/18 10:07:18;;;;;;;2.75;2.30;;;19.70;65.20;;;;;;4931788;29;20361;-69
2022/04/18 10:09:46;;;;;;;2.60;2.35;;;19.90;65.80;;;;;;4931649;29;20310;-71
2022/04/18 10:12:15;;;;;;;3.10;2.90;;;20.40;65.70;;;;;;4929152;29;20231;-70
2022/04/18 10:14:44;;;;;;;3.45;3.15;;;20.50;65.90;;;;;;4936404;28;20321;-71
2022/04/18 10:17:17;;;;;;;3.30;3.00;;;20.40;64.20;;;;;;4943830;28;20290;-67
2022/04/18 10:20:06;;;;;;;3.42;2.70;;;20.40;64.00;;;;;;4956042;28;20202;-70
2022/04/18 10:23:03;;;;;;;3.95;2.00;;;20.70;63.50;;;;;;4955891;28;20238;-70
2022/04/18 10:25:50;;;;;;;2.80;2.28;;;20.50;64.10;;;;;;4930279;28;20219;-68
2022/04/18 10:28:20;;;;;;;2.40;2.20;;;20.30;63.90;;;;;;4960215;28;20715;-67
2022/04/18 10:30:54;;;;;;;4.00;2.95;;;20.00;62.90;;;;;;4967018;28;20286;-70
2022/04/18 10:33:24;;;;;;;3.78;2.35;;;20.40;64.80;;;;;;4944400;28;21044;-66
2022/04/18 10:35:54;;;;;;;2.20;2.00;;;20.10;63.80;;;;;;4946780;28;20235;-67
2022/04/18 10:38:27;;;;;;;4.55;2.47;;;20.00;65.50;;;;;;4951385;28;20204;-68
2022/04/18 10:44:01;;;;;;;4.45;2.67;;;20.00;63.70;;;;;;4969153;28;20309;-69
2022/04/18 10:46:29;;;;;;;2.88;2.22;;;20.30;63.30;;;;;;4967543;28;20205;-68
2022/04/18 10:48:59;;;;;;;2.70;2.42;;;20.20;62.70;;;;;;4962990;28;20202;-68
2022/04/18 10:51:29;;;;;;;2.10;2.00;;;20.70;65.10;;;;;;4954897;28;20286;-68
2022/04/18 10:54:11;;;;;;;3.17;2.08;;;20.70;63.30;;;;;;4953558;28;20266;-67
2022/04/18 10:56:50;;;;;;;2.40;2.20;;;20.80;63.10;;;;;;4953227;28;20199;-68
2022/04/18 10:59:20;;;;;;;2.67;2.42;;;20.70;62.80;;;;;;4942455;28;20212;-67
2022/04/18 11:01:49;;;;;;;2.28;1.83;;;20.80;63.10;;;;;;4946551;28;20202;-68
2022/04/18 11:04:19;;;;;;;2.40;2.20;;;21.00;64.00;;;;;;4959711;28;20215;-67
2022/04/18 11:06:58;;;;;;;3.70;2.42;;;21.10;60.60;;;;;;4952733;28;20203;-67
2022/04/18 11:09:27;;;;;;;2.75;2.30;;;21.10;61.30;;;;;;4950795;28;20286;-69
2022/04/18 11:12:01;;;;;;;4.00;2.40;;;21.00;62.70;;;;;;4954724;28;20261;-69
2022/04/18 11:14:31;;;;;;;2.65;2.45;;;21.20;62.00;;;;;;5058798;23;20228;-61
2022/04/18 11:17:01;;;;;;;2.60;2.40;;;21.30;60.20;;;;;;5048700;28;20203;-61
2022/04/18 11:19:32;;;;;;;2.50;2.30;;;21.60;62.70;;;;;;5044880;28;20207;-61
2022/04/18 11:22:21;;;;;;;3.35;2.20;;;22.00;61.10;;;;;;5049835;28;20745;-61
2022/04/18 11:25:03;;;;;;;2.20;2.10;;;22.50;60.40;;;;;;5066302;28;20306;-62
2022/04/18 11:27:36;;;;;;;2.40;2.20;;;22.20;61.20;;;;;;5070480;28;20226;-61
2022/04/18 11:30:08;;;;;;;2.42;2.22;;;22.00;60.60;;;;;;5064147;28;20329;-61
2022/04/18 11:32:38;;;;;;;2.58;2.03;;;21.90;61.50;;;;;;5066966;28;20672;-62
2022/04/18 11:35:14;;;;;;;3.45;2.80;;;21.50;62.00;;;;;;5073464;28;20281;-62
2022/04/18 11:37:44;;;;;;;3.13;2.30;;;21.80;61.80;;;;;;5074444;28;20199;-61
2022/04/18 11:40:13;;;;;;;2.50;2.30;;;21.70;62.50;;;;;;5070513;28;20195;-62
2022/04/18 11:42:42;;;;;;;2.80;1.90;;;21.80;61.10;;;;;;5065692;28;20550;-61
2022/04/18 11:45:20;;;;;;;3.45;2.50;;;21.70;60.80;;;;;;5073793;28;20203;-62
2022/04/18 11:47:49;;;;;;;2.33;1.92;;;22.10;59.80;;;;;;5059869;28;20239;-62
2022/04/18 11:50:21;;;;;;;2.80;2.25;;;22.30;59.60;;;;;;5072420;28;20290;-62
2022/04/18 11:52:51;;;;;;;2.38;2.25;;;22.80;59.90;;;;;;5063537;28;20294;-63
2022/04/18 11:55:19;;;;;;;5.65;1.88;;;22.90;59.50;;;;;;5075581;28;20281;-61
2022/04/18 11:57:48;;;;;;;2.65;1.95;;;23.00;58.60;;;;;;5074269;28;20261;-60
2022/04/18 12:06:44;;;;;;;3.03;2.25;;;23.20;60.00;;;;;;5072835;28;20653;-61
2022/04/18 12:08:44;;;;;;;6.20;2.30;;;22.40;61.70;;;;;;5057095;28;20238;-62
2022/04/18 12:11:12;;;;;;;2.38;2.17;;;23.00;60.80;;;;;;5059154;28;20741;-61
2022/04/18 12:13:44;;;;;;;2.65;2.13;;;23.50;59.30;;;;;;5061906;28;20228;-62
2022/04/18 12:16:19;;;;;;;2.63;2.42;;;22.50;61.60;;;;;;5058061;28;20927;-62
2022/04/18 12:18:47;;;;;;;3.80;2.80;;;22.40;60.40;;;;;;5055573;28;20196;-62
2022/04/18 12:21:17;;;;;;;2.90;2.58;;;22.30;61.00;;;;;;5051619;28;20711;-62
2022/04/18 12:23:53;;;;;;;1.98;1.85;;;23.00;61.00;;;;;;5071906;28;20215;-62
2022/04/18 12:26:25;;;;;;;2.70;2.00;;;23.10;59.30;;;;;;5073592;28;20215;-62
2022/04/18 12:28:58;;;;;;;1.90;1.80;;;23.60;58.60;;;;;;5073025;28;20656;-62
2022/04/18 12:31:26;;;;;;;2.88;2.30;;;23.70;58.30;;;;;;5073259;28;20241;-62
2022/04/18 12:33:57;;;;;;;3.95;3.55;;;23.60;59.50;;;;;;5072759;28;20226;-62
2022/04/18 12:36:27;;;;;;;2.70;2.40;;;23.80;59.00;;;;;;5072500;28;20845;-62
2022/04/18 12:38:56;;;;;;;3.38;1.65;;;23.40;58.30;;;;;;5072967;28;20195;-62
2022/04/18 12:41:28;;;;;;;2.05;1.90;;;23.30;59.00;;;;;;5073007;28;20238;-63
2022/04/18 12:43:56;;;;;;;3.45;1.95;;;23.80;58.30;;;;;;5072174;28;20215;-62
2022/04/18 12:46:25;;;;;;;2.38;2.08;;;23.70;58.00;;;;;;5073250;28;20241;-62
2022/04/18 12:48:54;;;;;;;2.13;2.00;;;23.30;58.80;;;;;;5051442;28;20210;-62
2022/04/18 12:51:33;;;;;;;2.92;2.05;;;23.40;59.00;;;;;;5057552;28;20195;-63
2022/04/18 12:54:02;;;;;;;2.90;1.67;;;23.40;58.60;;;;;;5066363;28;20234;-62
2022/04/18 12:56:31;;;;;;;2.55;2.08;;;23.50;58.60;;;;;;5072890;28;20263;-62
2022/04/18 12:59:05;;;;;;;2.85;2.00;;;23.50;57.80;;;;;;5072882;28;20203;-62
2022/04/18 13:01:34;;;;;;;2.70;2.10;;;23.60;59.00;;;;;;5073039;28;20207;-62
2022/04/18 13:04:04;;;;;;;1.70;1.60;;;24.40;57.50;;;;;;5069747;28;20219;-62
2022/04/18 13:06:35;;;;;;;2.90;1.50;;;25.20;58.10;;;;;;5072966;28;20207;-62
2022/04/18 13:09:07;;;;;;;2.88;1.85;;;24.70;57.30;;;;;;5073200;28;20237;-62
2022/04/18 13:11:39;;;;;;;1.60;1.50;;;23.90;56.00;;;;;;5072503;28;20199;-62
2022/04/18 13:14:09;;;;;;;2.75;2.22;;;24.10;58.00;;;;;;5071087;28;20335;-62
2022/04/18 13:16:39;;;;;;;2.42;1.98;;;24.00;58.20;;;;;;5072986;28;20195;-62
2022/04/18 13:19:09;;;;;;;1.98;1.77;;;24.30;57.40;;;;;;5068669;28;20204;-63
2022/04/18 13:21:40;;;;;;;2.75;1.80;;;24.90;56.70;;;;;;5064085;28;20249;-63
2022/04/18 13:24:09;;;;;;;1.58;1.45;;;25.00;56.20;;;;;;5071642;28;20222;-63
2022/04/18 13:26:38;;;;;;;2.55;1.50;;;25.10;56.20;;;;;;5070876;28;20195;-63
2022/04/18 13:29:06;;;;;;;3.28;1.50;;;25.30;56.70;;;;;;5072394;28;20231;-63